Haro, Spain
Current Conditions -  °F | °C
As of 1:30 AM on Monday 26 Jan 2015 (Local Time) from LEVT Reporting Station
Broken Clouds Broken Clouds  
Wind Chill: 36°   Ceiling: 3400
Heat Index: 36°   Visibility: 6mi
Dew Point: 34°   Wind: 0mph
Humidity: 93%   Direction: NA
Pressure: 30.48"   Gusts: NA
Location:  42.58°N, 2.85°W
Report Text: LEVT 260030Z 00000KT 9999 FEW024 BKN034 02/01 Q1032
Loading
Personal Weather Stations






























Interactive Weather Map New forecast layout! Learn more

10-Day Weather Forecast

Advertisements
Track Severe Weather on mobile